createdAt,value
2019-02-16T00:00:22.155Z,161.90
2019-02-16T00:02:50.837Z,177.70
2019-02-16T00:05:19.461Z,157.90
2019-02-16T00:07:48.030Z,134.90
2019-02-16T00:10:16.625Z,146.77
2019-02-16T00:12:45.130Z,147.00
2019-02-16T00:15:13.838Z,149.80
2019-02-16T00:17:42.517Z,140.93
2019-02-16T00:20:11.229Z,149.80
2019-02-16T00:22:39.865Z,142.17
2019-02-16T00:25:08.533Z,134.17
2019-02-16T00:27:37.095Z,141.33
2019-02-16T00:30:07.022Z,137.53
2019-02-16T00:32:38.591Z,148.23
2019-02-16T00:35:07.248Z,147.43
2019-02-16T00:37:35.808Z,148.83
2019-02-16T00:40:06.769Z,138.10
2019-02-16T00:42:35.271Z,142.33
2019-02-16T00:45:04.920Z,112.77
2019-02-16T00:47:33.544Z,118.93
2019-02-16T00:50:02.190Z,118.53
2019-02-16T00:52:30.676Z,111.87
2019-02-16T00:54:59.275Z,98.43
2019-02-16T00:57:27.910Z,106.37
2019-02-16T00:59:56.467Z,97.83
2019-02-16T01:02:25.136Z,108.17
2019-02-16T01:04:53.661Z,106.80
2019-02-16T01:07:22.217Z,107.83
2019-02-16T01:09:50.884Z,107.77
2019-02-16T01:12:19.453Z,107.20
2019-02-16T01:14:48.091Z,108.33
2019-02-16T01:17:16.616Z,96.67
2019-02-16T01:19:45.232Z,97.50
2019-02-16T01:22:13.832Z,96.97
2019-02-16T01:24:42.566Z,85.83
2019-02-16T01:27:11.100Z,74.70
2019-02-16T01:29:39.731Z,76.33
2019-02-16T01:32:08.322Z,57.13
2019-02-16T01:34:36.894Z,72.53
2019-02-16T01:37:05.536Z,75.93
2019-02-16T01:39:34.202Z,72.47
2019-02-16T01:42:02.762Z,72.80
2019-02-16T01:44:31.326Z,71.50
2019-02-16T01:46:59.938Z,99.03
2019-02-16T01:49:28.491Z,104.27
2019-02-16T01:51:57.091Z,103.97
2019-02-16T01:54:25.687Z,104.20
2019-02-16T01:56:54.348Z,113.93
2019-02-16T01:59:22.973Z,91.03
2019-02-16T02:01:51.503Z,90.77
2019-02-16T02:04:20.093Z,81.50
2019-02-16T02:06:48.726Z,75.00
2019-02-16T02:09:17.468Z,80.97
2019-02-16T02:11:45.957Z,80.13
2019-02-16T02:14:14.456Z,71.07
2019-02-16T02:16:43.099Z,63.87
2019-02-16T02:19:11.743Z,83.93
2019-02-16T02:21:41.473Z,80.63
2019-02-16T02:24:10.131Z,90.47
2019-02-16T02:26:38.691Z,81.13
2019-02-16T02:29:07.286Z,97.57
2019-02-16T02:31:37.523Z,107.00
2019-02-16T02:34:07.881Z,94.83
2019-02-16T02:36:36.379Z,100.43
2019-02-16T02:39:05.855Z,102.00
2019-02-16T02:41:34.492Z,112.40
2019-02-16T02:44:03.260Z,98.03
2019-02-16T02:46:32.782Z,71.73
2019-02-16T02:49:01.269Z,110.13
2019-02-16T02:51:29.909Z,116.33
2019-02-16T02:53:58.508Z,113.67
2019-02-16T02:56:26.986Z,97.77
2019-02-16T02:58:55.557Z,106.30
2019-02-16T03:01:24.289Z,96.90
2019-02-16T03:03:53.117Z,91.07
2019-02-16T03:06:21.831Z,94.60
2019-02-16T03:08:50.444Z,97.00
2019-02-16T03:11:18.999Z,102.00
2019-02-16T03:13:47.627Z,99.00
2019-02-16T03:16:16.288Z,100.47
2019-02-16T03:18:44.773Z,93.33
2019-02-16T03:21:13.423Z,93.57
2019-02-16T03:23:41.966Z,89.83
2019-02-16T03:26:16.454Z,77.77
2019-02-16T03:28:53.826Z,74.63
2019-02-16T03:31:37.162Z,79.70
2019-02-16T03:34:08.740Z,78.17
2019-02-16T03:36:49.223Z,84.07
2019-02-16T03:39:17.812Z,81.80
2019-02-16T03:41:46.378Z,78.83
2019-02-16T03:44:15.021Z,67.70
2019-02-16T03:46:43.736Z,83.13
2019-02-16T03:49:12.292Z,89.10
2019-02-16T03:51:40.924Z,65.23
2019-02-16T03:54:09.510Z,68.07
2019-02-16T03:56:37.995Z,81.77
2019-02-16T03:59:06.627Z,69.77
2019-02-16T04:01:35.226Z,88.30
2019-02-16T04:04:03.856Z,80.47
2019-02-16T04:06:32.468Z,94.00
2019-02-16T04:09:01.130Z,88.13
2019-02-16T04:11:29.688Z,73.60
2019-02-16T04:13:58.316Z,75.27
2019-02-16T04:16:26.851Z,70.60
2019-02-16T04:18:55.486Z,73.93
2019-02-16T04:21:24.052Z,74.33
2019-02-16T04:23:52.651Z,74.93
2019-02-16T04:26:21.286Z,87.40
2019-02-16T04:28:49.850Z,70.60
2019-02-16T04:31:18.539Z,69.63
2019-02-16T04:33:47.127Z,80.43
2019-02-16T04:36:15.666Z,66.07
2019-02-16T04:38:44.252Z,55.03
2019-02-16T04:41:12.843Z,74.37
2019-02-16T04:43:41.406Z,69.80
2019-02-16T04:46:09.999Z,61.57
2019-02-16T04:48:38.547Z,54.73
2019-02-16T04:51:07.032Z,64.60
2019-02-16T04:53:35.623Z,62.53
2019-02-16T04:56:04.189Z,79.23
2019-02-16T04:58:32.687Z,82.97
2019-02-16T05:01:01.289Z,84.80
2019-02-16T05:03:29.773Z,68.63
2019-02-16T05:05:59.793Z,63.77
2019-02-16T05:08:28.716Z,65.80
2019-02-16T05:10:57.359Z,52.97
2019-02-16T05:13:25.908Z,71.17
2019-02-16T05:15:54.496Z,58.20
2019-02-16T05:18:22.995Z,70.93
2019-02-16T05:20:51.621Z,70.47
2019-02-16T05:23:20.145Z,80.33
2019-02-16T05:25:50.915Z,62.70
2019-02-16T05:28:19.020Z,69.07
2019-02-16T05:30:47.608Z,55.17
2019-02-16T05:33:16.225Z,75.10
2019-02-16T05:35:44.855Z,69.03
2019-02-16T05:38:13.461Z,72.00
2019-02-16T05:40:42.084Z,62.17
2019-02-16T05:43:10.836Z,71.13
2019-02-16T05:45:39.599Z,73.17
2019-02-16T05:48:08.164Z,63.13
2019-02-16T05:50:36.747Z,69.97
2019-02-16T05:53:05.365Z,71.80
2019-02-16T05:55:33.929Z,65.03
2019-02-16T05:58:02.597Z,60.40
2019-02-16T06:00:32.098Z,59.10
2019-02-16T06:03:00.598Z,61.93
2019-02-16T06:05:29.160Z,67.97
2019-02-16T06:07:57.740Z,47.70
2019-02-16T06:10:27.944Z,59.73
2019-02-16T06:12:56.482Z,49.10
2019-02-16T06:15:25.135Z,58.07
2019-02-16T06:17:53.636Z,64.83
2019-02-16T06:20:23.826Z,47.93
2019-02-16T06:22:52.384Z,72.23
2019-02-16T06:25:20.963Z,65.60
2019-02-16T06:27:49.519Z,55.23
2019-02-16T06:30:18.068Z,74.60
2019-02-16T06:32:46.946Z,81.47
2019-02-16T06:35:17.150Z,80.17
2019-02-16T06:37:45.674Z,80.40
2019-02-16T06:40:14.184Z,86.50
2019-02-16T06:42:42.685Z,80.77
2019-02-16T06:45:11.336Z,78.27
2019-02-16T06:47:39.978Z,81.93
2019-02-16T06:50:08.618Z,70.13
2019-02-16T06:52:37.140Z,71.47
2019-02-16T06:55:06.180Z,73.00
2019-02-16T06:57:34.663Z,75.97
2019-02-16T07:00:04.201Z,75.77
2019-02-16T07:02:32.775Z,76.47
2019-02-16T07:05:01.273Z,88.20
2019-02-16T07:07:29.863Z,74.10
2019-02-16T07:10:03.030Z,71.17
2019-02-16T07:12:31.520Z,74.67
2019-02-16T07:15:00.360Z,82.90
2019-02-16T07:17:39.441Z,74.57
2019-02-16T07:20:11.641Z,68.10
2019-02-16T07:22:40.255Z,78.87
2019-02-16T07:25:08.897Z,75.23
2019-02-16T07:27:37.433Z,91.30
2019-02-16T07:30:08.999Z,131.53
2019-02-16T07:32:37.719Z,60.30
2019-02-16T07:35:11.237Z,53.73
2019-02-16T07:37:41.404Z,57.13
2019-02-16T07:40:10.074Z,50.30
2019-02-16T07:42:49.329Z,49.20
2019-02-16T07:45:21.397Z,49.70
2019-02-16T07:47:53.078Z,53.83
2019-02-16T07:50:25.703Z,52.50
2019-02-16T07:52:55.947Z,48.47
2019-02-16T07:55:38.385Z,50.77
2019-02-16T07:58:08.651Z,45.17
2019-02-16T08:00:44.668Z,50.93
2019-02-16T08:03:14.852Z,49.83
2019-02-16T08:05:47.762Z,49.80
2019-02-16T08:08:29.790Z,49.53
2019-02-16T08:11:05.845Z,52.77
2019-02-16T08:13:52.488Z,52.83
2019-02-16T08:16:22.751Z,49.13
2019-02-16T08:18:59.169Z,50.90
2019-02-16T08:21:38.410Z,50.50
2019-02-16T08:24:11.653Z,49.93
2019-02-16T08:26:56.796Z,48.30
2019-02-16T08:29:43.419Z,47.20
2019-02-16T08:32:29.787Z,48.13
2019-02-16T08:34:59.954Z,49.60
2019-02-16T08:37:46.427Z,48.53
2019-02-16T08:40:19.746Z,51.63
2019-02-16T08:43:05.064Z,47.73
2019-02-16T08:45:47.621Z,46.73
2019-02-16T08:48:20.524Z,46.03
2019-02-16T08:50:59.610Z,48.83
2019-02-16T08:53:29.813Z,47.97
2019-02-16T08:56:06.038Z,46.87
2019-02-16T08:58:44.832Z,50.47
2019-02-16T09:01:27.435Z,48.63
2019-02-16T09:03:57.371Z,45.00
2019-02-16T09:06:36.317Z,53.20
2019-02-16T09:09:07.487Z,49.70
2019-02-16T09:11:37.749Z,49.37
2019-02-16T09:14:14.141Z,45.87
2019-02-16T09:17:05.021Z,53.43
2019-02-16T09:19:37.765Z,46.87
2019-02-16T09:22:08.024Z,48.07
2019-02-16T09:24:54.254Z,46.13
2019-02-16T09:27:39.471Z,43.77
2019-02-16T09:30:12.373Z,40.47
2019-02-16T09:32:57.618Z,41.90
2019-02-16T09:35:40.125Z,39.93
2019-02-16T09:38:10.399Z,42.00
2019-02-16T09:40:55.712Z,47.00
2019-02-16T09:43:25.842Z,43.83
2019-02-16T09:45:58.793Z,38.80
2019-02-16T09:48:44.014Z,46.63
2019-02-16T09:51:16.831Z,42.07
2019-02-16T09:54:07.958Z,40.50
2019-02-16T09:56:32.958Z,39.03
2019-02-16T09:59:03.193Z,42.00
2019-02-16T10:01:42.533Z,39.60
2019-02-16T10:04:15.629Z,38.00
2019-02-16T10:06:54.635Z,35.83
2019-02-16T10:09:24.911Z,49.13
2019-02-16T10:11:57.817Z,48.20
2019-02-16T10:14:36.841Z,41.07
2019-02-16T10:17:16.043Z,42.07
2019-02-16T10:19:46.199Z,41.90
2019-02-16T10:22:22.091Z,39.53
2019-02-16T10:25:03.955Z,42.97
2019-02-16T10:27:34.230Z,39.93
2019-02-16T10:30:04.505Z,43.43
2019-02-16T10:32:50.322Z,42.67
2019-02-16T10:35:37.027Z,47.23
2019-02-16T10:38:25.134Z,37.00
2019-02-16T10:41:11.265Z,42.70
2019-02-16T10:43:50.804Z,37.87
2019-02-16T10:46:38.435Z,35.27
2019-02-16T10:49:08.757Z,34.23
2019-02-16T10:51:50.901Z,31.83
2019-02-16T10:54:29.609Z,33.33
2019-02-16T10:57:17.169Z,31.33
2019-02-16T10:59:49.930Z,33.20
2019-02-16T11:02:20.117Z,35.43
2019-02-16T11:04:57.029Z,30.20
2019-02-16T11:07:29.932Z,31.43
2019-02-16T11:10:03.195Z,31.57
2019-02-16T11:12:33.489Z,32.80
2019-02-16T11:15:21.003Z,30.10
2019-02-16T11:17:55.830Z,26.97
2019-02-16T11:20:50.736Z,27.70
2019-02-16T11:23:21.011Z,29.50
2019-02-16T11:25:51.210Z,32.70
2019-02-16T11:28:24.093Z,29.47
2019-02-16T11:30:56.700Z,30.90
2019-02-16T11:33:26.975Z,27.97
2019-02-16T11:36:13.461Z,25.20
2019-02-16T11:39:03.989Z,34.60
2019-02-16T11:41:34.315Z,31.30
2019-02-16T11:44:04.589Z,29.00
2019-02-16T11:46:37.443Z,33.93
2019-02-16T11:49:13.530Z,35.70
2019-02-16T11:51:44.900Z,28.80
2019-02-16T11:54:28.897Z,27.23
2019-02-16T11:57:03.412Z,26.17
2019-02-16T11:59:37.351Z,27.77
2019-02-16T12:05:10.420Z,29.77
2019-02-16T12:07:43.872Z,34.73
2019-02-16T12:10:14.771Z,27.60
2019-02-16T12:12:56.989Z,27.20
2019-02-16T12:15:41.404Z,28.10
2019-02-16T12:18:27.918Z,30.17
2019-02-16T12:20:58.193Z,32.40
2019-02-16T12:23:46.074Z,29.10
2019-02-16T12:26:21.970Z,30.40
2019-02-16T12:28:59.374Z,28.40
2019-02-16T12:31:31.096Z,28.00
2019-02-16T12:34:10.105Z,27.27
2019-02-16T12:36:43.086Z,27.17
2019-02-16T12:39:20.581Z,26.77
2019-02-16T12:42:10.512Z,26.00
2019-02-16T12:44:40.730Z,23.77
2019-02-16T12:47:13.816Z,24.43
2019-02-16T12:49:52.942Z,24.23
2019-02-16T12:52:39.538Z,22.13
2019-02-16T12:55:18.940Z,22.40
2019-02-16T12:57:51.298Z,21.00
2019-02-16T13:00:30.209Z,24.93
2019-02-16T13:03:06.076Z,20.77
2019-02-16T13:05:52.601Z,20.33
2019-02-16T13:08:28.795Z,19.63
2019-02-16T13:11:05.050Z,23.43
2019-02-16T13:13:40.684Z,20.13
2019-02-16T13:16:10.991Z,18.07
2019-02-16T13:18:57.407Z,25.80
2019-02-16T13:21:27.723Z,27.80
2019-02-16T13:24:07.099Z,21.27
2019-02-16T13:26:43.149Z,23.03
2019-02-16T13:29:24.908Z,23.50
2019-02-16T13:32:07.139Z,23.07
2019-02-16T13:34:53.531Z,24.83
2019-02-16T13:37:29.513Z,24.13
2019-02-16T13:39:59.703Z,22.60
2019-02-16T13:42:29.915Z,22.97
2019-02-16T13:45:16.381Z,21.50
2019-02-16T13:47:55.173Z,19.47
2019-02-16T13:50:28.009Z,20.33
2019-02-16T13:53:03.774Z,25.43
2019-02-16T13:55:36.849Z,23.83
2019-02-16T13:58:09.704Z,26.60
2019-02-16T14:00:46.015Z,30.43
2019-02-16T14:03:18.959Z,27.07
2019-02-16T14:05:49.235Z,27.13
2019-02-16T14:08:35.583Z,33.30
2019-02-16T14:11:05.795Z,28.43
2019-02-16T14:13:53.963Z,29.87
2019-02-16T14:16:24.244Z,33.90
2019-02-16T14:18:52.925Z,28.87
2019-02-16T14:21:21.607Z,26.17
2019-02-16T14:23:50.121Z,24.70
2019-02-16T14:26:18.664Z,24.63
2019-02-16T14:28:48.537Z,25.67
2019-02-16T14:31:28.281Z,25.63
2019-02-16T14:33:53.301Z,28.87
2019-02-16T14:36:23.337Z,34.13
2019-02-16T14:38:56.298Z,28.60
2019-02-16T14:41:26.393Z,35.97
2019-02-16T14:43:54.967Z,38.90
2019-02-16T14:46:23.591Z,33.67
2019-02-16T14:48:52.273Z,31.37
2019-02-16T14:51:20.846Z,29.27
2019-02-16T14:53:50.870Z,31.27
2019-02-16T14:56:19.472Z,27.83
2019-02-16T14:58:49.714Z,24.70
2019-02-16T15:01:19.977Z,26.83
2019-02-16T15:03:50.192Z,27.63
2019-02-16T15:06:20.373Z,24.90
2019-02-16T15:08:50.727Z,23.30
2019-02-16T15:11:21.018Z,22.00
2019-02-16T15:13:51.235Z,26.07
2019-02-16T15:16:21.442Z,29.53
2019-02-16T15:18:51.579Z,27.83
2019-02-16T15:21:21.580Z,23.87
2019-02-16T15:23:51.876Z,25.00
2019-02-16T15:26:28.322Z,34.80
2019-02-16T15:28:54.080Z,32.83
2019-02-16T15:31:22.645Z,29.17
2019-02-16T15:33:51.276Z,33.67
2019-02-16T15:36:23.958Z,32.67
2019-02-16T15:38:51.698Z,28.60
2019-02-16T15:41:23.954Z,29.63
2019-02-16T15:43:52.442Z,30.47
2019-02-16T15:46:25.689Z,28.87
2019-02-16T15:48:54.512Z,31.57
2019-02-16T15:51:24.680Z,39.90
2019-02-16T15:53:55.731Z,41.33
2019-02-16T15:56:24.649Z,36.60
2019-02-16T15:58:53.571Z,36.67
2019-02-16T16:01:23.807Z,37.77
2019-02-16T16:03:52.487Z,35.27
2019-02-16T16:06:24.101Z,39.40
2019-02-16T16:08:56.744Z,39.17
2019-02-16T16:11:31.226Z,42.23
2019-02-16T16:14:04.037Z,44.37
2019-02-16T16:16:37.254Z,47.00
2019-02-16T16:19:17.981Z,48.13
2019-02-16T16:21:51.218Z,39.23
2019-02-16T16:24:24.010Z,32.90
2019-02-16T16:26:56.829Z,32.47
2019-02-16T16:29:43.374Z,34.00
2019-02-16T16:32:29.879Z,34.10
2019-02-16T16:35:02.889Z,33.87
2019-02-16T16:37:35.820Z,36.63
2019-02-16T16:40:06.655Z,34.63
2019-02-16T16:42:39.700Z,31.07
2019-02-16T16:45:28.081Z,33.60
2019-02-16T16:48:13.471Z,24.93
2019-02-16T16:50:43.666Z,45.67
2019-02-16T16:53:23.010Z,105.80
2019-02-16T16:56:03.210Z,135.07
2019-02-16T16:58:45.448Z,175.70
2019-02-16T17:01:32.062Z,76.53
2019-02-16T17:04:02.323Z,79.67
2019-02-16T17:06:49.711Z,107.37
2019-02-16T17:09:20.912Z,162.77
2019-02-16T17:11:57.014Z,170.57
2019-02-16T17:14:42.332Z,197.10
2019-02-16T17:17:19.024Z,172.40
2019-02-16T17:19:52.640Z,226.13
2019-02-16T17:22:33.025Z,219.50
2019-02-16T17:25:04.681Z,297.93
2019-02-16T17:27:40.963Z,235.00
2019-02-16T17:30:16.568Z,203.43
2019-02-16T17:32:59.940Z,195.67
2019-02-16T17:35:38.874Z,177.80
2019-02-16T17:38:17.942Z,219.70
2019-02-16T17:40:51.862Z,163.73
2019-02-16T17:43:25.049Z,168.33
2019-02-16T17:46:02.859Z,142.10
2019-02-16T17:48:42.108Z,205.70
2019-02-16T17:51:12.508Z,195.67
2019-02-16T17:53:47.056Z,220.60
2019-02-16T17:56:17.766Z,189.47
2019-02-16T17:58:49.472Z,186.53
2019-02-16T18:01:33.096Z,202.20
2019-02-16T18:04:15.150Z,201.20
2019-02-16T18:06:51.584Z,170.40
2019-02-16T18:09:38.181Z,185.33
2019-02-16T18:12:26.776Z,143.87
2019-02-16T18:14:57.005Z,163.13
2019-02-16T18:17:36.369Z,146.50
2019-02-16T18:20:07.286Z,133.27
2019-02-16T18:22:55.626Z,150.63
2019-02-16T18:25:28.403Z,139.53
2019-02-16T18:28:13.917Z,144.87
2019-02-16T18:30:56.215Z,140.50
2019-02-16T18:33:26.422Z,139.73
2019-02-16T18:35:59.169Z,149.50
2019-02-16T18:38:32.165Z,140.00
2019-02-16T18:41:02.322Z,125.23
2019-02-16T18:43:35.311Z,160.00
2019-02-16T18:46:09.566Z,118.33
2019-02-16T18:48:43.282Z,116.07
2019-02-16T18:51:25.797Z,108.37
2019-02-16T18:53:56.163Z,135.30
2019-02-16T18:56:42.667Z,144.10
2019-02-16T18:59:27.703Z,105.50
2019-02-16T19:02:03.813Z,109.60
2019-02-16T19:04:47.353Z,100.10
2019-02-16T19:07:17.661Z,127.17
2019-02-16T19:09:57.025Z,105.70
2019-02-16T19:12:27.265Z,125.73
2019-02-16T19:15:01.981Z,217.77
2019-02-16T19:17:34.547Z,230.13
2019-02-16T19:20:16.768Z,213.07
2019-02-16T19:22:52.865Z,95.63
2019-02-16T19:25:29.211Z,171.90
2019-02-16T19:27:59.525Z,226.07
2019-02-16T19:30:36.840Z,269.20
2019-02-16T19:33:07.146Z,289.13
2019-02-16T19:35:37.451Z,221.43
2019-02-16T19:38:08.028Z,235.00
2019-02-16T19:40:44.057Z,226.70
2019-02-16T19:43:19.784Z,318.43
2019-02-16T19:45:52.483Z,343.70
2019-02-16T19:48:42.761Z,328.57
2019-02-16T19:51:23.209Z,304.63
2019-02-16T19:53:53.368Z,256.67
2019-02-16T19:56:26.222Z,278.67
2019-02-16T19:59:00.372Z,251.20
2019-02-16T20:01:48.077Z,271.77
2019-02-16T20:04:33.626Z,264.77
2019-02-16T20:07:03.820Z,231.07
2019-02-16T20:09:39.841Z,257.50
2019-02-16T20:12:11.516Z,241.73
2019-02-16T20:14:41.719Z,241.93
2019-02-16T20:17:11.883Z,223.90
2019-02-16T20:19:47.986Z,194.83
2019-02-16T20:22:18.355Z,186.27
2019-02-16T20:24:48.647Z,173.97
2019-02-16T20:27:21.395Z,176.80
2019-02-16T20:29:55.741Z,178.17
2019-02-16T20:32:31.824Z,183.57
2019-02-16T20:35:02.085Z,187.57
2019-02-16T20:37:33.786Z,162.70
2019-02-16T20:40:16.058Z,173.80
2019-02-16T20:42:46.472Z,148.93
2019-02-16T20:45:22.547Z,158.03
2019-02-16T20:47:54.228Z,162.33
2019-02-16T20:50:40.706Z,164.43
2019-02-16T20:53:13.190Z,190.90
2019-02-16T20:55:48.040Z,191.63
2019-02-16T20:58:18.264Z,202.23
2019-02-16T21:00:48.535Z,177.50
2019-02-16T21:03:28.992Z,196.00
2019-02-16T21:06:14.221Z,158.67
2019-02-16T21:09:00.551Z,157.80
2019-02-16T21:11:36.720Z,160.47
2019-02-16T21:14:20.158Z,122.27
2019-02-16T21:16:58.327Z,150.30
2019-02-16T21:19:28.513Z,138.33
2019-02-16T21:22:14.591Z,148.30
2019-02-16T21:24:50.409Z,158.93
2019-02-16T21:27:22.153Z,132.30
2019-02-16T21:29:54.214Z,116.97
2019-02-16T21:32:27.349Z,129.60
2019-02-16T21:35:03.236Z,133.57
2019-02-16T21:37:49.544Z,243.43
2019-02-16T21:40:25.504Z,248.90
2019-02-16T21:43:00.095Z,234.77
2019-02-16T21:45:41.978Z,235.40
2019-02-16T21:48:23.927Z,194.47
2019-02-16T21:50:54.070Z,217.47
2019-02-16T21:53:27.164Z,211.53
2019-02-16T21:56:10.207Z,206.50
2019-02-16T21:58:47.841Z,203.27
2019-02-16T22:01:19.614Z,198.47
2019-02-16T22:03:52.742Z,200.30
2019-02-16T22:06:23.509Z,179.17
2019-02-16T22:08:54.647Z,175.37
2019-02-16T22:11:38.328Z,174.00
2019-02-16T22:14:06.975Z,171.70
2019-02-16T22:16:38.696Z,200.80
2019-02-16T22:19:11.155Z,194.37
2019-02-16T22:21:39.716Z,211.63
2019-02-16T22:24:10.046Z,199.00
2019-02-16T22:26:38.607Z,186.13
2019-02-16T22:29:09.641Z,173.50
2019-02-16T22:31:41.356Z,165.00
2019-02-16T22:34:11.451Z,154.17
2019-02-16T22:36:45.225Z,158.70
2019-02-16T22:39:13.695Z,154.37
2019-02-16T22:41:43.796Z,142.93
2019-02-16T22:44:17.634Z,149.07
2019-02-16T22:46:48.599Z,145.33
2019-02-16T22:49:17.170Z,128.00
2019-02-16T22:51:47.359Z,136.53
2019-02-16T22:54:16.246Z,146.67
2019-02-16T22:56:44.814Z,132.23
2019-02-16T22:59:16.131Z,110.83
2019-02-16T23:01:47.849Z,125.90
2019-02-16T23:04:18.047Z,102.73
2019-02-16T23:06:46.693Z,119.70
2019-02-16T23:09:28.479Z,134.20
2019-02-16T23:11:57.190Z,134.07
2019-02-16T23:14:28.045Z,140.80
2019-02-16T23:16:56.767Z,147.70
2019-02-16T23:19:27.129Z,150.10
2019-02-16T23:21:57.301Z,142.13
2019-02-16T23:24:27.945Z,134.27
2019-02-16T23:26:58.047Z,124.10
2019-02-16T23:29:28.239Z,119.63
2019-02-16T23:31:57.365Z,122.23
2019-02-16T23:34:29.094Z,113.93
2019-02-16T23:36:57.727Z,119.77
2019-02-16T23:39:28.031Z,125.63
2019-02-16T23:42:00.367Z,136.93
2019-02-16T23:44:29.300Z,119.77
2019-02-16T23:46:57.919Z,108.70
2019-02-16T23:49:26.761Z,88.40
2019-02-16T23:51:56.439Z,74.20
2019-02-16T23:54:25.080Z,63.27
2019-02-16T23:56:53.706Z,113.10
2019-02-16T23:59:23.970Z,88.93
